createdAt,value
2018-12-11T00:04:37.391Z,1.20
2018-12-11T00:09:21.476Z,1.30
2018-12-11T00:14:05.718Z,1.30
2018-12-11T00:18:50.024Z,1.30
2018-12-11T00:23:34.210Z,1.50
2018-12-11T00:28:18.143Z,1.70
2018-12-11T00:33:02.295Z,1.80
2018-12-11T00:37:46.791Z,1.90
2018-12-11T00:42:31.475Z,1.90
2018-12-11T00:47:20.881Z,2.00
2018-12-11T00:52:05.323Z,2.10
2018-12-11T00:56:49.483Z,2.00
2018-12-11T01:01:33.636Z,2.00
2018-12-11T01:06:22.953Z,1.90
2018-12-11T01:11:06.766Z,1.70
2018-12-11T01:15:50.685Z,1.40
2018-12-11T01:20:34.586Z,1.30
2018-12-11T01:25:18.637Z,1.20
2018-12-11T01:30:02.753Z,1.10
2018-12-11T01:34:46.635Z,1.10
2018-12-11T01:39:30.393Z,1.00
2018-12-11T01:44:14.296Z,1.20
2018-12-11T01:48:58.159Z,1.20
2018-12-11T01:53:42.410Z,1.30
2018-12-11T01:58:28.323Z,1.40
2018-12-11T02:03:30.322Z,1.50
2018-12-11T02:08:14.006Z,1.70
2018-12-11T02:12:57.858Z,1.80
2018-12-11T02:17:41.640Z,2.00
2018-12-11T02:22:25.461Z,2.10
2018-12-11T02:27:09.252Z,2.20
2018-12-11T02:31:53.456Z,2.20
2018-12-11T02:36:37.156Z,2.30
2018-12-11T02:41:21.145Z,2.30
2018-12-11T02:46:04.836Z,2.30
2018-12-11T02:50:48.783Z,2.30
2018-12-11T02:55:32.574Z,2.30
2018-12-11T03:00:17.480Z,2.40
2018-12-11T03:05:01.257Z,2.40
2018-12-11T03:09:45.198Z,2.40
2018-12-11T03:14:28.961Z,2.40
2018-12-11T03:19:12.831Z,2.40
2018-12-11T03:23:56.595Z,2.40
2018-12-11T03:28:40.532Z,2.40
2018-12-11T03:33:24.263Z,2.40
2018-12-11T03:38:08.066Z,2.40
2018-12-11T03:42:51.729Z,2.40
2018-12-11T03:47:35.636Z,2.40
2018-12-11T03:52:21.562Z,2.50
2018-12-11T03:57:05.188Z,2.40
2018-12-11T04:01:53.670Z,2.40
2018-12-11T04:06:37.583Z,2.40
2018-12-11T04:11:21.424Z,2.40
2018-12-11T04:16:05.206Z,2.40
2018-12-11T04:20:48.977Z,2.40
2018-12-11T04:25:32.779Z,2.40
2018-12-11T04:30:16.645Z,2.30
2018-12-11T04:35:00.411Z,2.40
2018-12-11T04:39:44.216Z,2.30
2018-12-11T04:44:27.898Z,2.30
2018-12-11T04:49:11.643Z,2.40
2018-12-11T04:53:55.343Z,2.30
2018-12-11T04:58:39.398Z,2.40
2018-12-11T05:03:23.160Z,2.40
2018-12-11T05:08:11.075Z,2.40
2018-12-11T05:12:54.762Z,2.40
2018-12-11T05:17:38.668Z,2.40
2018-12-11T05:22:22.549Z,2.40
2018-12-11T05:27:06.318Z,2.50
2018-12-11T05:31:50.030Z,2.50
2018-12-11T05:36:33.845Z,2.50
2018-12-11T05:41:25.850Z,2.50
2018-12-11T05:46:16.282Z,2.50
2018-12-11T05:51:18.912Z,2.60
2018-12-11T06:11:33.439Z,2.50
2018-12-11T06:21:27.927Z,2.50
2018-12-11T06:26:11.919Z,2.50
2018-12-11T06:30:55.707Z,2.60
2018-12-11T06:40:23.835Z,2.70
2018-12-11T06:45:07.683Z,2.60
2018-12-11T06:49:51.359Z,2.60
2018-12-11T06:54:46.962Z,2.50
2018-12-11T07:04:38.582Z,2.10
2018-12-11T07:24:57.490Z,1.90
2018-12-11T07:40:02.853Z,1.60
2018-12-11T07:44:46.636Z,1.50
2018-12-11T07:49:30.396Z,1.40
2018-12-11T07:54:14.198Z,1.30
2018-12-11T07:58:57.933Z,1.20
2018-12-11T08:03:41.784Z,1.20
2018-12-11T08:08:25.863Z,1.20
2018-12-11T08:13:09.637Z,1.20
2018-12-11T08:17:53.367Z,1.20
2018-12-11T08:22:37.049Z,1.20
2018-12-11T08:27:20.830Z,1.20
2018-12-11T08:32:04.589Z,1.30
2018-12-11T08:36:48.563Z,1.30
2018-12-11T08:41:32.318Z,1.30
2018-12-11T08:46:16.108Z,1.30
2018-12-11T08:50:59.964Z,1.40
2018-12-11T08:55:43.770Z,1.30
2018-12-11T09:00:27.469Z,1.40
2018-12-11T09:05:11.322Z,1.40
2018-12-11T09:09:55.086Z,1.40
2018-12-11T09:14:38.822Z,1.40
2018-12-11T09:19:22.654Z,1.40
2018-12-11T09:24:06.524Z,1.50
2018-12-11T09:28:50.422Z,1.50
2018-12-11T09:33:34.220Z,1.50
2018-12-11T09:38:18.021Z,1.50
2018-12-11T09:43:01.779Z,1.50
2018-12-11T09:47:45.594Z,1.60
2018-12-11T09:52:29.351Z,1.70
2018-12-11T09:57:13.093Z,1.70
2018-12-11T10:01:57.011Z,1.80
2018-12-11T10:06:40.736Z,1.90
2018-12-11T10:11:24.410Z,2.00
2018-12-11T10:16:08.400Z,2.10
2018-12-11T10:20:52.125Z,2.10
2018-12-11T10:25:35.836Z,2.10
2018-12-11T10:30:19.667Z,2.20
2018-12-11T10:35:03.558Z,2.20
2018-12-11T10:39:47.242Z,2.30
2018-12-11T10:44:30.921Z,2.30
2018-12-11T10:49:14.766Z,2.30
2018-12-11T10:53:58.566Z,2.30
2018-12-11T10:58:42.321Z,2.30
2018-12-11T11:03:26.014Z,2.30
2018-12-11T11:08:09.768Z,2.30
2018-12-11T11:12:53.486Z,2.30
2018-12-11T11:17:37.502Z,2.30
2018-12-11T11:22:21.264Z,2.40
2018-12-11T11:27:05.158Z,2.40
2018-12-11T11:31:48.881Z,2.40
2018-12-11T11:36:32.622Z,2.40
2018-12-11T11:41:16.349Z,2.40
2018-12-11T11:46:00.278Z,2.40
2018-12-11T11:50:44.093Z,2.40
2018-12-11T11:55:27.836Z,2.40
2018-12-11T12:00:14.401Z,2.40
2018-12-11T12:04:58.218Z,2.30
2018-12-11T12:09:42.092Z,2.40
2018-12-11T12:14:25.783Z,2.30
2018-12-11T12:19:09.620Z,2.40
2018-12-11T12:23:53.289Z,2.40
2018-12-11T12:28:37.073Z,2.40
2018-12-11T12:33:20.757Z,2.30
2018-12-11T12:38:04.422Z,2.30
2018-12-11T12:42:48.167Z,2.30
2018-12-11T12:47:32.013Z,2.20
2018-12-11T12:52:15.891Z,2.40
2018-12-11T12:56:59.666Z,2.40
2018-12-11T13:01:43.415Z,2.40
2018-12-11T13:06:28.314Z,2.40
2018-12-11T13:11:12.105Z,2.40
2018-12-11T13:15:56.043Z,2.40
2018-12-11T13:20:39.865Z,2.40
2018-12-11T13:25:23.558Z,2.40
2018-12-11T13:30:07.773Z,2.40
2018-12-11T13:34:51.515Z,2.40
2018-12-11T13:39:35.368Z,2.50
2018-12-11T13:44:19.474Z,2.40
2018-12-11T13:49:03.141Z,2.40
2018-12-11T13:53:46.885Z,2.50
2018-12-11T13:58:30.504Z,2.50
2018-12-11T14:03:14.196Z,2.50
2018-12-11T14:07:58.116Z,2.40
2018-12-11T14:12:41.829Z,2.40
2018-12-11T14:17:25.468Z,2.40
2018-12-11T14:22:09.286Z,2.40
2018-12-11T14:26:53.110Z,2.40
2018-12-11T14:31:36.826Z,2.60
2018-12-11T14:36:20.598Z,2.50
2018-12-11T14:41:04.243Z,2.40
2018-12-11T14:45:48.251Z,2.40
2018-12-11T14:50:32.096Z,2.40
2018-12-11T14:55:15.965Z,2.40
2018-12-11T14:59:59.732Z,2.40
2018-12-11T15:04:43.581Z,2.40
2018-12-11T15:09:32.682Z,2.30
2018-12-11T15:14:16.394Z,2.40
2018-12-11T15:19:02.880Z,2.40
2018-12-11T15:23:48.772Z,2.30
2018-12-11T15:28:32.468Z,2.30
2018-12-11T15:33:16.179Z,2.30
2018-12-11T15:37:59.889Z,2.30
2018-12-11T15:42:43.560Z,2.30
2018-12-11T15:47:27.329Z,2.30
2018-12-11T15:57:22.543Z,2.20
2018-12-11T16:02:06.571Z,2.10
2018-12-11T16:07:09.924Z,2.10
2018-12-11T16:11:53.672Z,2.00
2018-12-11T16:16:37.350Z,2.10
2018-12-11T16:21:21.185Z,2.00
2018-12-11T16:26:05.037Z,2.00
2018-12-11T16:46:27.192Z,2.00
2018-12-11T16:51:29.072Z,1.90
2018-12-11T16:56:27.007Z,1.90
2018-12-11T17:11:49.035Z,1.80
2018-12-11T17:16:34.339Z,1.70
2018-12-11T17:21:18.302Z,1.70
2018-12-11T17:26:02.123Z,1.70
2018-12-11T17:46:46.613Z,1.80
2018-12-11T17:51:36.145Z,1.70
2018-12-11T17:56:26.512Z,1.80
2018-12-11T18:01:10.406Z,1.80
2018-12-11T18:05:54.777Z,1.90
2018-12-11T18:10:44.049Z,2.00
2018-12-11T18:26:08.673Z,2.00
2018-12-11T18:31:12.871Z,2.00
2018-12-11T18:36:14.235Z,1.90
2018-12-11T18:46:24.470Z,2.00
2018-12-11T18:56:40.456Z,2.00
2018-12-11T19:01:41.241Z,2.10
2018-12-11T19:11:41.460Z,2.10
2018-12-11T19:16:35.992Z,2.20
2018-12-11T19:31:53.996Z,2.20
2018-12-11T19:36:37.955Z,2.20
2018-12-11T19:46:32.763Z,2.20
2018-12-11T19:51:16.771Z,2.20
2018-12-11T19:56:03.527Z,2.20
2018-12-11T20:00:48.612Z,2.20
2018-12-11T20:05:33.380Z,2.20
2018-12-11T20:10:18.499Z,2.20
2018-12-11T20:15:04.877Z,2.20
2018-12-11T20:19:48.516Z,2.20
2018-12-11T21:33:02.673Z,1.90
2018-12-11T21:37:47.883Z,1.90
2018-12-11T21:42:43.585Z,1.80
2018-12-11T21:47:33.855Z,1.80
2018-12-11T21:52:35.471Z,1.80
2018-12-11T21:57:31.618Z,1.80
2018-12-11T22:02:23.705Z,1.70
2018-12-11T22:07:27.183Z,1.50
2018-12-11T22:12:15.583Z,1.50
2018-12-11T22:17:12.393Z,1.40
2018-12-11T22:21:59.576Z,1.20
2018-12-11T22:32:00.263Z,1.10
2018-12-11T22:37:15.897Z,1.10
2018-12-11T22:42:09.999Z,0.90
2018-12-11T22:47:14.273Z,0.90
2018-12-11T22:52:08.761Z,0.90
2018-12-11T22:57:05.565Z,0.70
2018-12-11T23:02:11.011Z,0.70
2018-12-11T23:07:24.873Z,0.80
2018-12-11T23:17:35.224Z,1.00
2018-12-11T23:22:36.455Z,1.20
2018-12-11T23:27:23.045Z,1.20
2018-12-11T23:32:10.477Z,1.30
2018-12-11T23:37:07.062Z,1.30
2018-12-11T23:41:52.651Z,1.40
2018-12-11T23:46:43.803Z,1.30
2018-12-11T23:51:29.255Z,1.40
2018-12-11T23:56:25.643Z,1.40
